Time;durP1;ratioP1;P1;durP2;ratioP2;P2;SDS_P1;SDS_P2;PMS_P1;PMS_P2;Temp;Humidity;BMP_temperature;BMP_pressure;BME280_temperature;BME280_humidity;BME280_pressure;Samples;Min_cycle;Max_cycle;Signal;HPM_P1;HPM_P2
2022/03/02 00:01:38;;;;;;;6.70;3.58;;;23.20;42.20;;;;;;4993250;28;20035;-72
2022/03/02 00:04:05;;;;;;;6.70;3.45;;;23.20;42.60;;;;;;4996845;28;20030;-68
2022/03/02 00:06:31;;;;;;;5.90;3.47;;;23.20;42.10;;;;;;4996715;28;20030;-67
2022/03/02 00:08:56;;;;;;;6.38;3.90;;;23.20;42.10;;;;;;4994204;28;20034;-70
2022/03/02 00:11:22;;;;;;;6.05;3.35;;;23.20;42.00;;;;;;5000389;28;20022;-70
2022/03/02 00:13:48;;;;;;;5.65;3.67;;;23.20;42.00;;;;;;4997681;28;20195;-69
2022/03/02 00:16:14;;;;;;;6.40;3.25;;;23.20;42.10;;;;;;4997201;28;20042;-69
2022/03/02 00:18:40;;;;;;;6.65;3.55;;;23.20;42.00;;;;;;4996154;28;20220;-70
2022/03/02 00:21:06;;;;;;;6.43;3.28;;;23.20;42.00;;;;;;4997742;28;20303;-65
2022/03/02 00:23:32;;;;;;;6.55;3.17;;;23.20;42.20;;;;;;4997105;28;20037;-69
2022/03/02 00:25:58;;;;;;;5.32;3.08;;;23.20;42.10;;;;;;4995522;28;20585;-66
2022/03/02 00:28:24;;;;;;;5.40;2.65;;;23.20;42.00;;;;;;4997969;28;20022;-69
2022/03/02 00:30:50;;;;;;;5.30;2.70;;;23.20;42.00;;;;;;4997207;28;20861;-69
2022/03/02 00:33:17;;;;;;;6.55;3.03;;;23.10;41.80;;;;;;4999598;28;20116;-65
2022/03/02 00:35:42;;;;;;;5.05;2.83;;;23.10;41.80;;;;;;5014396;28;20045;-65
2022/03/02 00:38:10;;;;;;;4.93;2.50;;;23.10;42.30;;;;;;4998041;28;20035;-68
2022/03/02 00:40:37;;;;;;;5.32;2.80;;;23.10;41.80;;;;;;4997018;28;20026;-68
2022/03/02 00:43:03;;;;;;;5.13;2.78;;;23.10;41.70;;;;;;4997668;28;20056;-69
2022/03/02 00:45:31;;;;;;;5.25;2.80;;;23.00;41.70;;;;;;5013584;28;20026;-68
2022/03/02 00:47:58;;;;;;;4.20;2.45;;;23.00;41.70;;;;;;4998920;28;20026;-68
2022/03/02 00:50:24;;;;;;;4.72;2.55;;;23.00;41.70;;;;;;4998800;28;20405;-69
2022/03/02 00:52:50;;;;;;;4.78;2.45;;;22.90;41.60;;;;;;4994799;28;20025;-69
2022/03/02 00:55:15;;;;;;;6.45;2.60;;;22.90;41.60;;;;;;4995157;28;20525;-68
2022/03/02 00:57:41;;;;;;;5.28;2.55;;;22.90;41.60;;;;;;5014138;28;20031;-69
2022/03/02 01:00:08;;;;;;;4.13;2.20;;;22.90;41.60;;;;;;4997174;28;20036;-69
2022/03/02 01:02:33;;;;;;;4.85;2.58;;;22.90;41.60;;;;;;4997566;28;20067;-69
2022/03/02 01:04:59;;;;;;;3.67;2.30;;;22.80;41.50;;;;;;4999563;28;20026;-65
2022/03/02 01:07:25;;;;;;;3.85;2.17;;;22.80;41.60;;;;;;4999026;28;20293;-68
2022/03/02 01:09:50;;;;;;;4.40;2.15;;;22.80;41.50;;;;;;4995369;28;20026;-69
2022/03/02 01:12:16;;;;;;;4.80;2.40;;;22.80;41.60;;;;;;4998561;28;20025;-67
2022/03/02 01:14:42;;;;;;;4.80;2.80;;;22.70;41.50;;;;;;4999271;28;20387;-68
2022/03/02 01:17:08;;;;;;;3.58;2.10;;;22.70;41.60;;;;;;4999919;28;20038;-68
2022/03/02 01:19:35;;;;;;;4.57;2.15;;;22.70;41.60;;;;;;4998163;28;20018;-69
2022/03/02 01:22:01;;;;;;;5.68;2.97;;;22.70;41.60;;;;;;5013039;28;20039;-69
2022/03/02 01:24:26;;;;;;;4.30;2.03;;;22.60;41.60;;;;;;4996531;28;20068;-66
2022/03/02 01:26:52;;;;;;;3.80;2.17;;;22.60;41.60;;;;;;4997276;28;20034;-68
2022/03/02 01:29:17;;;;;;;3.75;2.00;;;22.60;41.60;;;;;;4997648;28;20371;-69
2022/03/02 01:31:43;;;;;;;4.05;2.10;;;22.60;41.60;;;;;;4998088;28;20109;-66
2022/03/02 01:34:09;;;;;;;4.90;2.30;;;22.60;41.70;;;;;;4998441;28;20034;-69
2022/03/02 01:36:34;;;;;;;3.10;1.70;;;22.50;41.60;;;;;;4996889;28;20053;-68
2022/03/02 01:39:00;;;;;;;4.47;2.20;;;22.50;41.60;;;;;;4996183;28;20509;-67
2022/03/02 01:41:26;;;;;;;4.20;1.98;;;22.50;41.60;;;;;;4996243;28;20885;-68
2022/03/02 01:43:54;;;;;;;4.13;2.00;;;22.50;41.70;;;;;;4999070;28;20383;-68
2022/03/02 01:46:22;;;;;;;3.33;1.90;;;22.50;41.70;;;;;;5013977;28;20506;-68
2022/03/02 01:48:48;;;;;;;3.10;1.98;;;22.40;41.60;;;;;;5012856;28;20025;-69
2022/03/02 01:51:15;;;;;;;3.55;1.95;;;22.40;41.60;;;;;;4998693;28;20080;-68
2022/03/02 01:53:41;;;;;;;3.55;1.88;;;22.40;41.70;;;;;;4996987;28;20337;-65
2022/03/02 01:56:07;;;;;;;2.78;1.60;;;22.40;41.70;;;;;;4997116;28;20038;-68
2022/03/02 01:58:33;;;;;;;4.13;2.00;;;22.40;41.60;;;;;;4997968;28;20037;-69
2022/03/02 02:01:00;;;;;;;3.58;1.95;;;22.30;41.70;;;;;;4995809;28;20037;-68
2022/03/02 02:03:26;;;;;;;3.42;1.90;;;22.30;41.60;;;;;;4996310;28;20033;-68
2022/03/02 02:05:52;;;;;;;2.95;1.60;;;22.30;41.70;;;;;;4996142;28;20034;-65
2022/03/02 02:08:18;;;;;;;3.47;1.80;;;22.30;41.70;;;;;;4995185;28;20033;-69
2022/03/02 02:10:44;;;;;;;4.53;1.70;;;22.30;41.70;;;;;;4992945;28;20084;-69
2022/03/02 02:13:09;;;;;;;3.33;1.80;;;22.30;41.80;;;;;;5011476;28;20044;-65
2022/03/02 02:15:35;;;;;;;2.88;1.80;;;22.20;41.70;;;;;;4997533;28;20423;-68
2022/03/02 02:18:01;;;;;;;3.47;1.75;;;22.20;41.70;;;;;;4996886;28;20084;-65
2022/03/02 02:20:27;;;;;;;3.40;1.70;;;22.10;41.70;;;;;;4996851;28;20030;-68
2022/03/02 02:22:53;;;;;;;2.88;1.52;;;22.20;41.70;;;;;;4996046;28;20041;-66
2022/03/02 02:25:19;;;;;;;3.50;1.77;;;22.10;41.70;;;;;;4994345;28;20038;-65
2022/03/02 02:27:47;;;;;;;3.17;1.75;;;22.10;41.70;;;;;;4995419;28;20027;-69
2022/03/02 02:30:14;;;;;;;3.55;1.80;;;22.10;41.80;;;;;;5009779;28;20113;-68
2022/03/02 02:32:41;;;;;;;2.70;1.67;;;22.10;41.70;;;;;;4995661;28;20452;-64
2022/03/02 02:35:09;;;;;;;2.60;1.60;;;22.10;41.80;;;;;;5010638;28;20037;-67
2022/03/02 02:37:36;;;;;;;2.75;1.58;;;22.10;41.80;;;;;;4995732;28;20172;-68
2022/03/02 02:40:07;;;;;;;2.70;1.63;;;22.00;41.80;;;;;;4994320;28;20854;-68
2022/03/02 02:42:34;;;;;;;2.88;1.60;;;22.00;41.70;;;;;;4996379;28;20034;-68
2022/03/02 02:45:00;;;;;;;2.80;1.63;;;22.00;41.80;;;;;;4996190;28;20041;-65
2022/03/02 02:47:26;;;;;;;3.60;1.90;;;22.00;41.80;;;;;;4996134;28;20822;-68
2022/03/02 02:49:52;;;;;;;2.78;1.60;;;22.00;41.80;;;;;;4995044;28;20030;-68
2022/03/02 02:52:18;;;;;;;3.10;1.58;;;21.90;41.80;;;;;;4994136;28;20114;-68
2022/03/02 02:54:44;;;;;;;2.95;1.60;;;21.90;41.80;;;;;;5008379;28;20441;-68
2022/03/02 02:57:10;;;;;;;2.65;1.58;;;21.90;41.80;;;;;;4995987;28;20041;-66
2022/03/02 02:59:36;;;;;;;2.72;1.63;;;21.90;41.80;;;;;;5010690;28;20034;-68
2022/03/02 03:02:03;;;;;;;2.67;1.50;;;21.90;41.90;;;;;;4995056;28;20038;-68
2022/03/02 03:04:28;;;;;;;3.08;1.73;;;21.90;41.90;;;;;;4997026;28;20034;-68
2022/03/02 03:06:54;;;;;;;2.38;1.40;;;21.90;41.90;;;;;;4996401;28;20158;-66
2022/03/02 03:09:20;;;;;;;2.80;1.60;;;21.80;41.90;;;;;;4992700;28;20087;-68
2022/03/02 03:11:45;;;;;;;2.72;1.50;;;21.80;41.90;;;;;;4994582;28;20023;-68
2022/03/02 03:14:13;;;;;;;2.20;1.38;;;21.80;41.90;;;;;;4996103;28;20573;-67
2022/03/02 03:16:39;;;;;;;2.67;1.50;;;21.80;42.00;;;;;;5013331;28;20080;-66
2022/03/02 03:19:06;;;;;;;3.15;1.75;;;21.70;41.90;;;;;;4999726;28;20453;-68
2022/03/02 03:21:32;;;;;;;2.22;1.40;;;21.70;42.00;;;;;;4997977;28;20042;-68
2022/03/02 03:23:58;;;;;;;2.42;1.48;;;21.70;42.00;;;;;;4997879;28;20030;-68
2022/03/02 03:26:23;;;;;;;1.90;1.25;;;21.70;42.00;;;;;;5014020;28;20018;-68
2022/03/02 03:28:49;;;;;;;2.22;1.48;;;21.70;42.10;;;;;;4999400;28;20064;-65
2022/03/02 03:31:15;;;;;;;2.28;1.55;;;21.70;42.10;;;;;;5000054;28;20042;-69
2022/03/02 03:33:40;;;;;;;2.58;1.40;;;21.60;42.10;;;;;;5012515;28;20038;-69
2022/03/02 03:36:06;;;;;;;2.90;1.30;;;21.60;42.10;;;;;;5000164;28;20121;-68
2022/03/02 03:38:32;;;;;;;2.65;1.42;;;21.60;42.10;;;;;;4998120;28;20127;-69
2022/03/02 03:40:57;;;;;;;3.05;1.30;;;21.60;42.10;;;;;;4997442;28;20490;-68
2022/03/02 03:43:23;;;;;;;2.70;1.63;;;21.60;42.10;;;;;;4999181;28;20026;-65
2022/03/02 03:45:49;;;;;;;2.92;1.70;;;21.60;42.10;;;;;;5014277;28;20467;-68
2022/03/02 03:48:15;;;;;;;2.22;1.30;;;21.60;42.10;;;;;;4997825;28;20060;-64
2022/03/02 03:50:42;;;;;;;2.42;1.38;;;21.60;42.10;;;;;;4998707;28;20125;-68
2022/03/02 03:53:08;;;;;;;2.20;1.50;;;21.60;42.20;;;;;;4998440;28;20543;-69
2022/03/02 03:55:34;;;;;;;2.20;1.42;;;21.50;42.10;;;;;;4998411;28;20030;-66
2022/03/02 03:58:00;;;;;;;2.42;1.30;;;21.50;42.20;;;;;;4998712;28;20038;-68
2022/03/02 04:00:26;;;;;;;2.30;1.40;;;21.50;42.20;;;;;;4998117;28;20375;-68
2022/03/02 04:02:51;;;;;;;2.15;1.33;;;21.50;42.20;;;;;;4999223;28;20030;-69
2022/03/02 04:05:17;;;;;;;3.05;1.60;;;21.50;42.20;;;;;;4999897;28;20095;-66
2022/03/02 04:07:44;;;;;;;2.38;1.60;;;21.40;42.10;;;;;;4997805;28;20135;-66
2022/03/02 04:10:10;;;;;;;2.75;1.50;;;21.50;42.30;;;;;;4996214;28;20023;-65
2022/03/02 04:12:36;;;;;;;2.13;1.40;;;21.50;42.20;;;;;;4998533;28;20072;-69
2022/03/02 04:15:03;;;;;;;2.10;1.30;;;21.50;42.20;;;;;;5012506;28;20037;-67
2022/03/02 04:17:29;;;;;;;2.35;1.50;;;21.50;42.20;;;;;;5000844;28;20029;-68
2022/03/02 04:19:55;;;;;;;2.63;1.40;;;21.50;42.20;;;;;;4998212;28;20036;-69
2022/03/02 04:22:20;;;;;;;2.53;1.50;;;21.50;42.30;;;;;;4999185;28;20039;-68
2022/03/02 04:24:47;;;;;;;1.98;1.25;;;21.40;42.20;;;;;;4997424;28;20038;-68
2022/03/02 04:27:13;;;;;;;1.88;1.25;;;21.40;42.30;;;;;;5012722;28;20027;-68
2022/03/02 04:29:39;;;;;;;2.50;1.42;;;21.40;42.30;;;;;;4997926;28;20023;-68
2022/03/02 04:32:05;;;;;;;1.75;1.15;;;21.40;42.30;;;;;;5001220;28;20038;-68
2022/03/02 04:34:30;;;;;;;2.15;1.30;;;21.40;42.30;;;;;;4999351;28;20033;-68
2022/03/02 04:36:56;;;;;;;2.88;1.50;;;21.40;42.30;;;;;;5014315;28;20037;-68
2022/03/02 04:39:22;;;;;;;2.30;1.25;;;21.40;42.30;;;;;;4997127;28;20029;-68
2022/03/02 04:41:48;;;;;;;2.42;1.60;;;21.40;42.30;;;;;;4997579;28;20108;-65
2022/03/02 04:44:13;;;;;;;1.90;1.20;;;21.40;42.40;;;;;;5013508;28;20053;-68
2022/03/02 04:46:39;;;;;;;2.00;1.40;;;21.40;42.40;;;;;;4998547;28;20033;-66
2022/03/02 04:49:13;;;;;;;2.35;1.35;;;21.30;42.40;;;;;;4997809;28;20489;-69
2022/03/02 04:51:40;;;;;;;2.63;1.50;;;21.30;42.30;;;;;;4998908;28;20058;-68
2022/03/02 04:54:07;;;;;;;1.73;1.17;;;21.30;42.40;;;;;;5011928;28;20069;-68
2022/03/02 04:56:33;;;;;;;2.17;1.30;;;21.30;42.40;;;;;;4998955;28;20027;-68
2022/03/02 04:59:01;;;;;;;2.63;1.40;;;21.30;43.00;;;;;;4997583;28;20501;-65
2022/03/02 05:01:28;;;;;;;2.10;1.30;;;21.30;42.40;;;;;;4997528;28;20141;-68
2022/03/02 05:03:53;;;;;;;2.47;1.42;;;21.30;42.40;;;;;;4998059;28;20670;-68
2022/03/02 05:06:19;;;;;;;1.80;1.20;;;21.30;42.40;;;;;;4998424;28;20030;-68
2022/03/02 05:08:45;;;;;;;2.25;1.30;;;21.30;42.50;;;;;;4997908;28;20999;-68
2022/03/02 05:11:11;;;;;;;1.92;1.10;;;21.30;42.50;;;;;;5011300;28;20117;-66
2022/03/02 05:13:36;;;;;;;2.67;1.40;;;21.30;42.50;;;;;;4998732;28;20034;-68
2022/03/02 05:16:02;;;;;;;2.00;1.20;;;21.20;42.50;;;;;;4998848;28;20036;-68
2022/03/02 05:18:28;;;;;;;2.50;1.35;;;21.20;42.50;;;;;;5012244;28;20037;-69
2022/03/02 05:20:54;;;;;;;1.63;1.10;;;21.20;42.50;;;;;;4998573;28;20048;-68
2022/03/02 05:23:19;;;;;;;1.85;1.10;;;21.20;42.50;;;;;;4994544;28;20145;-68
2022/03/02 05:25:45;;;;;;;1.73;1.23;;;21.20;42.60;;;;;;4996153;28;20347;-66
2022/03/02 05:28:11;;;;;;;1.95;1.15;;;21.20;42.60;;;;;;4998243;28;20053;-68
2022/03/02 05:30:36;;;;;;;2.05;1.20;;;21.20;43.10;;;;;;5013808;28;20038;-68
2022/03/02 05:33:02;;;;;;;2.20;1.20;;;21.20;42.60;;;;;;4998553;28;20118;-68
2022/03/02 05:35:27;;;;;;;1.98;1.20;;;21.20;42.60;;;;;;4999215;28;20038;-68
2022/03/02 05:37:54;;;;;;;2.00;1.30;;;21.20;42.60;;;;;;4997139;28;20390;-65
2022/03/02 05:40:20;;;;;;;2.28;1.20;;;21.10;42.60;;;;;;4995954;28;20459;-68
2022/03/02 05:42:46;;;;;;;2.03;1.20;;;21.20;42.70;;;;;;4997934;28;20049;-68
2022/03/02 05:45:12;;;;;;;2.10;1.25;;;21.10;42.60;;;;;;4998046;28;20267;-65
2022/03/02 05:47:39;;;;;;;2.13;1.10;;;21.10;42.60;;;;;;4998376;28;20062;-68
2022/03/02 05:50:07;;;;;;;2.25;1.10;;;21.10;42.70;;;;;;4997483;28;20097;-68
2022/03/02 05:52:33;;;;;;;2.05;1.20;;;21.10;42.70;;;;;;4998044;28;20351;-67
2022/03/02 05:54:58;;;;;;;1.77;1.08;;;21.10;42.70;;;;;;4995227;28;20398;-68
2022/03/02 05:57:24;;;;;;;2.15;1.30;;;21.10;42.70;;;;;;4997090;28;20038;-68
2022/03/02 05:59:50;;;;;;;2.28;1.30;;;21.10;42.70;;;;;;4996787;28;20038;-68
2022/03/02 06:02:16;;;;;;;1.52;0.95;;;21.10;42.70;;;;;;4998088;28;20482;-68
2022/03/02 06:04:41;;;;;;;1.65;1.10;;;21.10;42.70;;;;;;4998398;28;20042;-65
2022/03/02 06:07:07;;;;;;;1.65;1.02;;;21.10;42.70;;;;;;4996314;28;20395;-68
2022/03/02 06:09:33;;;;;;;1.65;1.10;;;21.10;42.70;;;;;;4996013;28;20049;-68
2022/03/02 06:11:58;;;;;;;1.75;1.20;;;21.00;42.70;;;;;;4997382;28;20113;-68
2022/03/02 06:14:24;;;;;;;1.60;1.13;;;21.00;42.70;;;;;;4997761;28;20030;-68
2022/03/02 06:16:50;;;;;;;2.30;1.35;;;21.00;42.70;;;;;;4997849;28;20040;-68
2022/03/02 06:19:16;;;;;;;1.50;0.95;;;21.00;42.80;;;;;;4996912;28;20048;-68
2022/03/02 06:21:46;;;;;;;1.60;1.08;;;21.00;42.80;;;;;;5011855;28;20026;-68
2022/03/02 06:24:14;;;;;;;1.52;1.10;;;21.00;42.80;;;;;;4994964;28;20049;-69
2022/03/02 06:26:41;;;;;;;1.48;1.10;;;21.00;42.80;;;;;;4996312;28;20026;-68
2022/03/02 06:29:06;;;;;;;1.90;1.13;;;21.00;43.30;;;;;;4996908;28;20030;-68
2022/03/02 06:31:33;;;;;;;1.90;1.20;;;21.00;42.80;;;;;;4996269;28;20036;-68
2022/03/02 06:34:00;;;;;;;1.67;1.10;;;21.00;42.80;;;;;;4996220;28;20030;-68
2022/03/02 06:36:26;;;;;;;2.05;1.20;;;21.00;42.80;;;;;;4996257;28;20073;-68
2022/03/02 06:38:51;;;;;;;1.92;1.13;;;21.00;42.80;;;;;;4996457;28;20479;-68
2022/03/02 06:41:25;;;;;;;1.67;1.20;;;21.00;42.80;;;;;;4994320;28;20522;-69
2022/03/02 06:44:01;;;;;;;2.20;1.35;;;21.00;42.90;;;;;;4997544;28;20034;-68
2022/03/02 06:46:54;;;;;;;2.03;1.20;;;21.00;42.90;;;;;;4996264;28;20030;-65
2022/03/02 06:49:38;;;;;;;1.85;1.13;;;20.90;42.80;;;;;;4995833;28;20155;-64
2022/03/02 06:52:06;;;;;;;1.80;1.15;;;20.90;42.80;;;;;;5010946;28;20105;-68
2022/03/02 06:54:32;;;;;;;1.40;1.05;;;20.90;42.80;;;;;;5010551;28;20128;-68
2022/03/02 06:57:01;;;;;;;1.73;1.05;;;20.90;42.80;;;;;;4995609;28;20072;-68
2022/03/02 06:59:38;;;;;;;1.63;1.00;;;20.90;42.80;;;;;;4996143;28;20149;-68
2022/03/02 07:02:05;;;;;;;1.58;1.08;;;20.90;42.80;;;;;;4994453;28;20117;-68
2022/03/02 07:04:37;;;;;;;1.40;1.00;;;20.90;42.90;;;;;;4995470;28;20030;-68
2022/03/02 07:07:03;;;;;;;1.33;0.98;;;20.90;42.90;;;;;;4996730;28;20121;-65
2022/03/02 07:09:30;;;;;;;1.50;1.05;;;20.90;42.90;;;;;;4994517;28;20026;-68
2022/03/02 07:11:58;;;;;;;1.83;1.00;;;20.90;42.90;;;;;;5010462;28;20110;-65
2022/03/02 07:14:24;;;;;;;1.88;1.20;;;20.90;42.90;;;;;;4997262;28;20077;-68
2022/03/02 07:16:51;;;;;;;2.80;1.27;;;20.90;42.90;;;;;;5011667;28;20521;-67
2022/03/02 07:19:17;;;;;;;1.35;0.98;;;20.90;42.90;;;;;;4995713;28;20111;-68
2022/03/02 07:21:45;;;;;;;1.40;0.90;;;20.80;42.90;;;;;;4993705;28;20140;-68
2022/03/02 07:24:19;;;;;;;1.75;1.10;;;20.90;42.90;;;;;;5009380;28;20830;-68
2022/03/02 07:26:50;;;;;;;1.17;0.90;;;20.80;42.90;;;;;;5009168;28;20045;-69
2022/03/02 07:29:18;;;;;;;1.90;1.10;;;20.80;42.90;;;;;;4994986;28;20037;-68
2022/03/02 07:31:45;;;;;;;1.77;1.00;;;20.80;42.90;;;;;;4995951;28;20042;-66
2022/03/02 07:34:13;;;;;;;1.50;1.10;;;20.80;42.90;;;;;;4996023;28;20037;-68
2022/03/02 07:36:40;;;;;;;1.85;1.00;;;20.80;42.90;;;;;;5010721;28;20049;-68
2022/03/02 07:39:09;;;;;;;1.30;1.00;;;20.80;42.90;;;;;;4993212;28;20022;-68
2022/03/02 07:41:35;;;;;;;1.38;1.00;;;20.80;42.90;;;;;;4993604;28;20035;-68
2022/03/02 07:44:02;;;;;;;1.83;1.00;;;20.80;42.90;;;;;;4994629;28;20046;-68
2022/03/02 07:46:29;;;;;;;1.42;0.95;;;20.80;43.00;;;;;;4997153;28;20097;-65
2022/03/02 07:48:56;;;;;;;1.80;1.10;;;20.80;42.90;;;;;;4995252;28;20423;-68
2022/03/02 07:51:23;;;;;;;1.70;1.10;;;20.80;42.90;;;;;;4995460;28;20141;-67
2022/03/02 07:53:51;;;;;;;1.58;1.05;;;20.80;42.90;;;;;;4993735;28;20030;-68
2022/03/02 07:56:18;;;;;;;1.23;0.90;;;20.80;42.90;;;;;;4991838;28;20034;-68
2022/03/02 07:58:44;;;;;;;1.73;1.00;;;20.80;42.90;;;;;;5010643;28;20038;-68
2022/03/02 08:01:15;;;;;;;1.70;1.00;;;20.80;42.90;;;;;;4997394;28;20117;-68
2022/03/02 08:03:43;;;;;;;2.05;1.00;;;20.70;42.90;;;;;;4996972;28;20030;-64
2022/03/02 08:06:10;;;;;;;1.35;1.00;;;20.80;43.00;;;;;;4999187;28;20497;-68
2022/03/02 08:08:37;;;;;;;1.65;0.98;;;20.80;42.90;;;;;;4996057;28;20084;-69
2022/03/02 08:11:04;;;;;;;1.70;1.10;;;20.80;43.00;;;;;;4997196;28;20109;-68
2022/03/02 08:13:31;;;;;;;1.85;1.10;;;20.70;42.90;;;;;;4998358;28;20120;-68
2022/03/02 08:15:57;;;;;;;1.20;0.90;;;20.80;43.00;;;;;;5000088;28;20610;-68
2022/03/02 08:18:23;;;;;;;1.45;0.90;;;20.70;42.90;;;;;;4998931;28;20038;-68
2022/03/02 08:20:51;;;;;;;1.58;1.08;;;20.70;42.90;;;;;;4999394;28;20494;-66
2022/03/02 08:23:21;;;;;;;1.65;1.00;;;20.70;42.90;;;;;;4998451;28;20033;-68
2022/03/02 08:25:54;;;;;;;1.30;1.00;;;20.70;43.00;;;;;;4992292;28;20171;-68
2022/03/02 08:28:22;;;;;;;1.42;1.00;;;20.70;43.00;;;;;;4998438;28;20038;-68
2022/03/02 08:30:52;;;;;;;1.88;1.05;;;20.70;43.00;;;;;;4997350;28;20108;-68
2022/03/02 08:33:29;;;;;;;2.08;1.13;;;20.70;43.00;;;;;;4999300;28;20474;-68
2022/03/02 08:35:57;;;;;;;1.85;1.02;;;20.70;43.00;;;;;;4998482;28;20041;-68
2022/03/02 08:38:25;;;;;;;1.70;1.13;;;20.70;43.00;;;;;;4996372;28;20029;-68
2022/03/02 08:40:50;;;;;;;1.23;0.93;;;20.70;43.00;;;;;;4996391;28;20026;-65
2022/03/02 08:43:17;;;;;;;2.40;1.05;;;20.70;43.00;;;;;;4998821;28;20033;-68
2022/03/02 08:45:50;;;;;;;1.90;1.20;;;20.70;43.10;;;;;;5014631;28;20072;-68
2022/03/02 08:48:18;;;;;;;2.08;1.10;;;20.70;43.00;;;;;;4997796;28;20117;-65
2022/03/02 08:50:45;;;;;;;1.58;1.08;;;20.70;43.10;;;;;;4999176;28;20113;-68
2022/03/02 08:53:14;;;;;;;1.92;1.23;;;20.70;43.10;;;;;;4999217;28;20112;-68
2022/03/02 08:55:41;;;;;;;1.80;1.20;;;20.70;43.10;;;;;;4997955;28;20116;-68
2022/03/02 08:58:08;;;;;;;1.88;1.10;;;20.70;43.00;;;;;;5004678;28;20100;-68
2022/03/02 09:00:34;;;;;;;1.45;1.10;;;20.70;43.10;;;;;;4998901;28;20113;-66
2022/03/02 09:03:02;;;;;;;2.38;1.30;;;20.70;43.10;;;;;;4997706;28;20034;-68
2022/03/02 09:05:29;;;;;;;1.35;0.95;;;20.70;43.10;;;;;;5003866;28;20121;-64
2022/03/02 09:07:55;;;;;;;1.50;1.02;;;20.70;43.10;;;;;;4998068;28;20032;-67
2022/03/02 09:10:22;;;;;;;1.92;1.10;;;20.70;43.10;;;;;;4997413;28;20048;-68
2022/03/02 09:12:48;;;;;;;2.00;1.00;;;20.70;43.10;;;;;;4998799;28;20025;-68
2022/03/02 09:15:13;;;;;;;2.60;1.02;;;20.70;43.10;;;;;;4997670;28;20165;-68
2022/03/02 09:17:39;;;;;;;1.23;1.00;;;20.60;43.00;;;;;;4998485;28;20023;-67
2022/03/02 09:20:07;;;;;;;2.33;1.10;;;20.60;43.00;;;;;;4996975;28;20030;-68
2022/03/02 09:22:36;;;;;;;1.60;1.10;;;20.70;43.10;;;;;;4997519;28;20157;-68
2022/03/02 09:25:02;;;;;;;1.92;1.00;;;20.60;43.10;;;;;;4995916;28;20770;-68
2022/03/02 09:27:30;;;;;;;2.75;1.25;;;20.70;43.10;;;;;;5012482;28;20030;-68
2022/03/02 09:30:02;;;;;;;1.50;1.20;;;20.70;43.10;;;;;;4996547;28;20034;-68
2022/03/02 09:32:31;;;;;;;1.95;1.17;;;20.70;43.10;;;;;;4998301;28;20096;-64
2022/03/02 09:34:57;;;;;;;2.13;1.10;;;20.60;43.10;;;;;;4998099;28;20030;-68
2022/03/02 09:37:25;;;;;;;2.70;1.30;;;20.70;43.20;;;;;;4996967;28;20037;-68
2022/03/02 09:39:51;;;;;;;1.85;1.20;;;20.60;43.10;;;;;;4994267;28;20482;-67
2022/03/02 09:42:26;;;;;;;1.80;1.10;;;20.60;43.10;;;;;;4996232;28;20217;-67
2022/03/02 09:45:12;;;;;;;1.77;1.13;;;20.60;43.10;;;;;;4998453;28;20018;-68
2022/03/02 09:47:45;;;;;;;1.52;1.10;;;20.60;43.10;;;;;;4997286;28;20026;-68
2022/03/02 09:50:13;;;;;;;2.08;1.10;;;20.60;43.10;;;;;;4997428;28;20022;-67
2022/03/02 09:52:40;;;;;;;2.42;1.20;;;20.60;43.10;;;;;;4995290;28;20153;-67
2022/03/02 09:55:12;;;;;;;1.52;1.02;;;20.60;43.10;;;;;;4994098;28;20163;-68
2022/03/02 09:57:46;;;;;;;2.30;1.27;;;20.60;43.10;;;;;;5000809;28;20092;-65
2022/03/02 10:00:15;;;;;;;1.52;1.00;;;20.60;43.10;;;;;;4995105;28;20030;-67
2022/03/02 10:02:46;;;;;;;2.00;1.20;;;20.60;43.20;;;;;;4995327;28;20025;-67
2022/03/02 10:05:18;;;;;;;1.85;1.10;;;20.60;43.10;;;;;;4996767;28;20038;-68
2022/03/02 10:08:00;;;;;;;2.05;1.10;;;20.60;43.20;;;;;;4996641;28;20022;-69
2022/03/02 10:10:31;;;;;;;1.70;1.08;;;20.60;43.10;;;;;;4990687;28;20044;-69
2022/03/02 10:12:59;;;;;;;2.58;1.35;;;20.60;43.30;;;;;;4993904;28;20030;-69
2022/03/02 10:15:26;;;;;;;3.05;1.25;;;20.70;43.40;;;;;;4996630;28;20062;-67
2022/03/02 10:17:53;;;;;;;2.40;1.30;;;20.70;43.40;;;;;;4995326;28;20038;-69
2022/03/02 10:20:21;;;;;;;3.22;1.27;;;20.70;43.40;;;;;;4994673;28;20379;-66
2022/03/02 10:23:05;;;;;;;1.55;0.90;;;20.80;43.40;;;;;;4991840;28;20084;-68
2022/03/02 10:26:01;;;;;;;2.13;1.00;;;20.80;43.90;;;;;;4992996;28;20033;-68
2022/03/02 10:28:31;;;;;;;1.58;0.95;;;20.90;43.40;;;;;;4993058;28;20038;-68
2022/03/02 10:31:16;;;;;;;1.80;1.08;;;20.90;43.30;;;;;;5006367;28;20048;-68
2022/03/02 10:33:50;;;;;;;2.08;1.10;;;20.90;43.30;;;;;;4996376;28;20034;-68
2022/03/02 10:36:17;;;;;;;1.85;1.00;;;21.00;43.40;;;;;;4995923;28;20379;-69
2022/03/02 10:38:55;;;;;;;1.60;1.10;;;21.00;43.30;;;;;;4994373;28;20104;-69
2022/03/02 10:41:21;;;;;;;1.80;1.10;;;21.00;43.30;;;;;;4991748;28;20057;-67
2022/03/02 10:44:04;;;;;;;3.17;1.08;;;21.10;43.30;;;;;;4994131;28;20084;-66
2022/03/02 10:46:30;;;;;;;1.15;0.88;;;21.10;43.20;;;;;;4996167;28;20034;-68
2022/03/02 10:49:07;;;;;;;2.83;1.20;;;21.10;43.20;;;;;;4993702;28;20064;-68
2022/03/02 10:51:34;;;;;;;2.10;1.23;;;21.10;43.20;;;;;;4994305;28;20060;-67
2022/03/02 10:54:06;;;;;;;1.70;1.17;;;21.20;43.20;;;;;;4991690;28;20049;-65
2022/03/02 10:56:38;;;;;;;2.10;1.20;;;21.20;43.10;;;;;;4994471;28;20495;-71
2022/03/02 10:59:07;;;;;;;1.77;1.10;;;21.30;43.20;;;;;;4993337;28;20422;-66
2022/03/02 11:01:33;;;;;;;1.73;0.97;;;21.30;43.40;;;;;;4995149;28;20059;-64
2022/03/02 11:03:59;;;;;;;2.20;1.15;;;21.30;43.20;;;;;;5007791;28;20747;-64
2022/03/02 11:06:25;;;;;;;2.00;1.20;;;21.30;43.10;;;;;;4995449;28;20084;-67
2022/03/02 11:08:54;;;;;;;3.03;1.02;;;21.30;43.20;;;;;;4992939;28;20030;-67
2022/03/02 11:11:24;;;;;;;1.60;1.00;;;21.30;43.20;;;;;;4990483;28;20030;-65
2022/03/02 11:13:51;;;;;;;2.47;1.40;;;21.40;43.20;;;;;;4994903;28;20081;-68
2022/03/02 11:16:22;;;;;;;1.45;1.00;;;21.40;43.20;;;;;;4995601;28;20086;-68
2022/03/02 11:18:52;;;;;;;2.15;1.10;;;21.40;43.20;;;;;;4993563;28;20041;-69
2022/03/02 11:21:39;;;;;;;2.42;1.27;;;21.40;43.00;;;;;;4991682;28;20129;-68
2022/03/02 11:24:05;;;;;;;2.42;1.02;;;21.50;43.00;;;;;;4989849;28;20042;-67
2022/03/02 11:26:39;;;;;;;2.22;1.20;;;21.60;43.10;;;;;;4992988;28;20118;-67
2022/03/02 11:29:12;;;;;;;1.75;1.10;;;21.60;43.10;;;;;;4990786;28;20478;-67
2022/03/02 11:31:54;;;;;;;2.20;1.25;;;21.60;43.10;;;;;;4992721;28;20428;-65
2022/03/02 11:34:24;;;;;;;2.13;1.10;;;21.60;43.20;;;;;;4992009;28;20027;-64
2022/03/02 11:36:55;;;;;;;2.22;1.10;;;21.70;43.00;;;;;;4996573;28;20042;-67
2022/03/02 11:39:23;;;;;;;2.38;1.05;;;21.70;42.90;;;;;;5008264;28;20557;-68
2022/03/02 11:41:54;;;;;;;2.50;1.40;;;21.70;42.70;;;;;;5012335;28;20067;-67
2022/03/02 11:44:31;;;;;;;2.50;1.30;;;21.80;42.70;;;;;;4998625;28;20037;-65
2022/03/02 11:46:59;;;;;;;2.15;1.27;;;21.70;42.80;;;;;;4999069;28;20075;-68
2022/03/02 11:49:55;;;;;;;2.03;1.15;;;21.80;42.80;;;;;;5012062;28;20126;-69
2022/03/02 11:52:21;;;;;;;2.17;1.17;;;21.70;42.70;;;;;;4998580;28;20033;-68
2022/03/02 11:54:51;;;;;;;1.52;1.10;;;21.80;42.70;;;;;;4994100;28;20026;-69
2022/03/02 11:57:19;;;;;;;1.45;0.90;;;21.80;42.60;;;;;;4997015;28;20022;-69
2022/03/02 11:59:46;;;;;;;1.40;1.08;;;21.80;42.60;;;;;;4997225;28;20037;-68
2022/03/02 12:02:17;;;;;;;2.20;1.27;;;21.80;42.60;;;;;;4998613;28;20062;-65
2022/03/02 12:04:58;;;;;;;1.70;1.20;;;21.80;42.50;;;;;;4996327;28;20026;-69
2022/03/02 12:07:24;;;;;;;1.95;1.30;;;21.80;42.50;;;;;;4997938;28;20026;-67
2022/03/02 12:09:50;;;;;;;1.63;1.10;;;21.80;42.40;;;;;;4993672;28;20083;-69
2022/03/02 12:12:20;;;;;;;2.85;1.05;;;21.90;42.50;;;;;;4998342;28;20025;-68
2022/03/02 12:14:53;;;;;;;2.05;1.13;;;21.90;42.50;;;;;;4996932;28;20036;-69
2022/03/02 12:17:33;;;;;;;2.28;1.30;;;21.90;42.50;;;;;;4997389;28;20029;-69
2022/03/02 12:20:01;;;;;;;;;;;21.90;42.50;;;;;;4995120;28;20112;-69
2022/03/02 12:22:34;;;;;;;2.10;1.20;;;21.90;42.50;;;;;;4996956;28;19916;-68
2022/03/02 12:25:00;;;;;;;1.88;1.10;;;21.90;42.50;;;;;;4994266;28;20291;-69
2022/03/02 12:27:25;;;;;;;1.48;1.02;;;21.90;42.50;;;;;;5000859;28;20350;-69
2022/03/02 12:29:55;;;;;;;2.40;1.30;;;21.90;42.50;;;;;;4996905;28;20488;-68
2022/03/02 12:32:21;;;;;;;2.63;1.30;;;21.90;42.40;;;;;;4995508;28;20030;-65
2022/03/02 12:34:52;;;;;;;2.28;1.10;;;21.90;42.50;;;;;;4997708;28;20084;-68
2022/03/02 12:37:20;;;;;;;2.55;1.30;;;21.90;42.50;;;;;;4995983;28;20025;-68
2022/03/02 12:39:47;;;;;;;2.83;1.40;;;21.90;42.50;;;;;;4988852;28;20029;-65
2022/03/02 12:42:14;;;;;;;1.98;1.23;;;21.90;42.50;;;;;;4991358;28;20022;-68
2022/03/02 12:44:58;;;;;;;2.92;1.45;;;22.00;43.10;;;;;;4992463;28;20026;-69
2022/03/02 12:47:27;;;;;;;4.07;1.30;;;21.90;42.60;;;;;;5006538;28;20084;-69
2022/03/02 12:49:54;;;;;;;2.33;1.30;;;22.00;42.70;;;;;;5007860;28;20178;-65
2022/03/02 12:52:22;;;;;;;2.10;1.23;;;22.00;42.70;;;;;;4993911;28;20025;-68